METAR Data
IDs: Format: Raw Decoded Include TAF

Data at: 2344 UTC 29 May 2020

METAR for:KCIN (Carroll/Neu Arpt, IA, US)
Text:KCIN 292335Z AUTO 35011KT 10SM CLR 22/06 A3014 RMK AO2
Temperature: 22.0°C ( 72°F)
Dewpoint: 6.0°C ( 43°F) [RH = 35%]
Pressure (altimeter):30.14 inches Hg (1020.7 mb)
Winds:from the N (350 degrees) at 13 MPH (11 knots; 5.7 m/s)
Visibility:10 or more sm (16+ km)
Ceiling:at least 12,000 feet AGL
Clouds:sky clear below 12,000 feet AGL
QC Flag:automated observation with no human augmentation